Time;durP1;ratioP1;P1;durP2;ratioP2;P2;SDS_P1;SDS_P2;PMS_P1;PMS_P2;Temp;Humidity;BMP_temperature;BMP_pressure;BME280_temperature;BME280_humidity;BME280_pressure;Samples;Min_cycle;Max_cycle;Signal;HPM_P1;HPM_P2
2021/10/11 00:00:30;;;;;;;922.38;776.33;;;;;;;;;;5006630;28;20095;-84
2021/10/11 00:02:56;;;;;;;928.42;796.90;;;;;;;;;;5008673;28;20540;-85
2021/10/11 00:05:22;;;;;;;929.08;802.92;;;;;;;;;;5007783;28;20018;-85
2021/10/11 00:07:48;;;;;;;959.40;853.83;;;;;;;;;;5007683;28;20049;-85
2021/10/11 00:10:19;;;;;;;932.33;805.03;;;;;;;;;;5007488;28;20041;-85
2021/10/11 00:12:46;;;;;;;947.80;842.45;;;;;;;;;;5007127;28;20049;-84
2021/10/11 00:15:12;;;;;;;935.20;813.25;;;;;;;;;;5008122;28;20033;-84
2021/10/11 00:17:38;;;;;;;935.15;824.28;;;;;;;;;;5005737;28;20222;-84
2021/10/11 00:20:05;;;;;;;931.40;808.78;;;;;;;;;;5008660;28;20496;-85
2021/10/11 00:22:31;;;;;;;931.30;805.38;;;;;;;;;;5006625;28;20103;-84
2021/10/11 00:24:57;;;;;;;936.03;816.15;;;;;;;;;;5007534;28;20060;-84
2021/10/11 00:27:23;;;;;;;935.58;811.95;;;;;;;;;;5007636;28;20091;-85
2021/10/11 00:29:49;;;;;;;923.25;784.25;;;;;;;;;;5008524;28;20034;-85
2021/10/11 00:32:15;;;;;;;941.58;829.35;;;;;;;;;;5023127;28;20037;-84
2021/10/11 00:34:41;;;;;;;935.53;816.00;;;;;;;;;;5006876;28;20371;-84
2021/10/11 00:37:07;;;;;;;936.47;810.80;;;;;;;;;;5004284;28;20033;-84
2021/10/11 00:39:33;;;;;;;953.25;846.97;;;;;;;;;;5003628;28;20034;-83
2021/10/11 00:41:59;;;;;;;936.40;813.97;;;;;;;;;;5004261;28;20465;-84
2021/10/11 00:44:25;;;;;;;941.65;828.90;;;;;;;;;;5007231;28;20486;-84
2021/10/11 00:46:51;;;;;;;928.22;794.10;;;;;;;;;;5008096;28;20037;-84
2021/10/11 00:49:17;;;;;;;923.45;778.72;;;;;;;;;;5006599;28;20030;-84
2021/10/11 00:51:43;;;;;;;913.10;750.25;;;;;;;;;;5004901;28;20494;-84
2021/10/11 00:54:10;;;;;;;943.13;832.15;;;;;;;;;;5008330;28;20025;-84
2021/10/11 00:56:36;;;;;;;937.08;815.50;;;;;;;;;;5007695;28;20042;-84
2021/10/11 00:59:02;;;;;;;934.67;798.65;;;;;;;;;;5006933;28;20130;-84
2021/10/11 01:01:28;;;;;;;931.80;795.45;;;;;;;;;;5021971;28;20056;-84
2021/10/11 01:03:54;;;;;;;933.63;804.92;;;;;;;;;;5006792;28;20033;-84
2021/10/11 01:06:20;;;;;;;918.78;769.50;;;;;;;;;;5006039;28;20447;-84
2021/10/11 01:08:46;;;;;;;918.35;758.67;;;;;;;;;;5007155;28;20121;-84
2021/10/11 01:11:12;;;;;;;912.90;749.53;;;;;;;;;;5005842;28;20329;-84
2021/10/11 01:13:39;;;;;;;916.03;750.80;;;;;;;;;;5007154;28;20026;-84
2021/10/11 01:16:05;;;;;;;923.53;779.20;;;;;;;;;;5006945;28;20045;-83
2021/10/11 01:18:32;;;;;;;928.53;794.30;;;;;;;;;;5006573;28;20038;-84
2021/10/11 01:20:58;;;;;;;937.42;817.45;;;;;;;;;;5005408;28;20064;-83
2021/10/11 01:23:25;;;;;;;910.58;741.13;;;;;;;;;;5005084;28;20044;-84
2021/10/11 01:25:52;;;;;;;937.70;817.35;;;;;;;;;;5008447;28;20807;-83
2021/10/11 01:28:18;;;;;;;916.75;751.65;;;;;;;;;;5006176;28;20057;-84
2021/10/11 01:30:44;;;;;;;915.78;755.58;;;;;;;;;;5007609;28;20034;-83
2021/10/11 01:33:10;;;;;;;927.38;790.60;;;;;;;;;;5005714;28;20549;-82
2021/10/11 01:35:37;;;;;;;913.80;747.80;;;;;;;;;;5008270;28;20044;-83
2021/10/11 01:38:04;;;;;;;924.72;775.88;;;;;;;;;;5006693;28;20222;-83
2021/10/11 01:40:30;;;;;;;912.75;745.75;;;;;;;;;;5007572;28;20883;-83
2021/10/11 01:42:56;;;;;;;919.83;764.90;;;;;;;;;;5006270;28;20092;-83
2021/10/11 01:45:22;;;;;;;918.75;759.78;;;;;;;;;;5007968;28;20935;-84
2021/10/11 01:47:48;;;;;;;916.70;750.20;;;;;;;;;;5006364;28;20920;-84
2021/10/11 01:50:14;;;;;;;916.55;751.20;;;;;;;;;;5007168;28;20088;-84
2021/10/11 01:52:40;;;;;;;914.58;731.60;;;;;;;;;;5003818;28;20037;-84
2021/10/11 01:55:06;;;;;;;916.80;744.05;;;;;;;;;;5006506;28;20065;-83
2021/10/11 01:57:33;;;;;;;923.03;739.35;;;;;;;;;;5005323;28;20030;-83
2021/10/11 01:59:59;;;;;;;934.55;786.63;;;;;;;;;;5005234;28;20041;-83
2021/10/11 02:02:25;;;;;;;918.33;743.65;;;;;;;;;;5007219;28;20061;-84
2021/10/11 02:04:51;;;;;;;908.55;713.22;;;;;;;;;;5005746;28;20037;-84
2021/10/11 02:07:17;;;;;;;922.92;750.38;;;;;;;;;;5005983;28;20245;-84
2021/10/11 02:09:43;;;;;;;926.55;768.55;;;;;;;;;;5005973;28;20049;-84
2021/10/11 02:12:09;;;;;;;920.08;751.10;;;;;;;;;;5005058;28;20052;-84
2021/10/11 02:14:35;;;;;;;912.75;717.20;;;;;;;;;;5006138;28;20045;-84
2021/10/11 02:17:01;;;;;;;911.67;717.42;;;;;;;;;;5006796;28;20501;-84
2021/10/11 02:19:27;;;;;;;903.47;687.80;;;;;;;;;;5005811;28;20034;-84
2021/10/11 02:21:53;;;;;;;904.20;694.40;;;;;;;;;;5003219;28;20466;-83
2021/10/11 02:24:19;;;;;;;915.40;722.75;;;;;;;;;;5005273;28;20041;-84
2021/10/11 02:26:45;;;;;;;912.67;710.60;;;;;;;;;;5004454;28;20034;-84
2021/10/11 02:29:11;;;;;;;902.53;679.53;;;;;;;;;;5005771;28;20036;-83
2021/10/11 02:31:37;;;;;;;916.58;718.22;;;;;;;;;;5004285;28;20473;-84
2021/10/11 02:34:03;;;;;;;909.22;693.50;;;;;;;;;;5005424;28;20034;-84
2021/10/11 02:36:29;;;;;;;916.00;716.97;;;;;;;;;;5006234;28;20045;-84
2021/10/11 02:38:55;;;;;;;908.90;687.13;;;;;;;;;;5005567;28;20077;-84
2021/10/11 02:41:21;;;;;;;905.13;679.38;;;;;;;;;;5005057;28;20017;-84
2021/10/11 02:43:48;;;;;;;909.35;691.95;;;;;;;;;;5006595;28;20799;-84
2021/10/11 02:46:14;;;;;;;918.45;716.13;;;;;;;;;;5005324;28;20355;-84
2021/10/11 02:48:40;;;;;;;907.78;687.58;;;;;;;;;;5005641;28;20128;-84
2021/10/11 02:51:06;;;;;;;922.15;731.30;;;;;;;;;;5003701;28;20042;-83
2021/10/11 02:53:32;;;;;;;907.35;693.15;;;;;;;;;;5005484;28;20476;-84
2021/10/11 02:55:58;;;;;;;911.00;691.55;;;;;;;;;;5005873;28;20125;-84
2021/10/11 02:58:24;;;;;;;903.67;673.65;;;;;;;;;;5006904;28;20340;-84
2021/10/11 03:00:50;;;;;;;901.33;664.10;;;;;;;;;;5005245;28;20025;-84
2021/10/11 03:03:16;;;;;;;901.17;662.15;;;;;;;;;;5005345;28;20101;-84
2021/10/11 03:05:42;;;;;;;911.50;687.78;;;;;;;;;;5007328;28;20049;-84
2021/10/11 03:08:08;;;;;;;907.95;673.28;;;;;;;;;;5004119;28;20120;-84
2021/10/11 03:10:34;;;;;;;900.67;648.13;;;;;;;;;;5007708;28;20029;-84
2021/10/11 03:13:00;;;;;;;897.08;638.28;;;;;;;;;;5006341;28;20525;-84
2021/10/11 03:15:26;;;;;;;893.70;621.45;;;;;;;;;;5006093;28;20034;-84
2021/10/11 03:17:52;;;;;;;890.03;601.15;;;;;;;;;;5005836;28;20041;-84
2021/10/11 03:20:18;;;;;;;890.38;599.92;;;;;;;;;;5005201;28;20100;-85
2021/10/11 03:22:44;;;;;;;894.85;614.25;;;;;;;;;;5003345;28;20375;-84
2021/10/11 03:25:10;;;;;;;903.97;645.05;;;;;;;;;;5039211;28;20080;-85
2021/10/11 03:27:36;;;;;;;892.63;611.67;;;;;;;;;;5022690;28;20033;-84
2021/10/11 03:30:02;;;;;;;896.38;625.13;;;;;;;;;;5006484;28;20237;-85
2021/10/11 03:32:28;;;;;;;892.90;606.67;;;;;;;;;;5005659;28;20053;-85
2021/10/11 03:34:54;;;;;;;902.08;635.42;;;;;;;;;;5005012;28;20064;-84
2021/10/11 03:37:20;;;;;;;891.28;609.92;;;;;;;;;;5004977;28;20030;-84
2021/10/11 03:39:46;;;;;;;891.55;600.38;;;;;;;;;;5021472;28;20030;-85
2021/10/11 03:42:12;;;;;;;885.58;578.97;;;;;;;;;;5005659;28;20029;-85
2021/10/11 03:44:38;;;;;;;890.97;599.72;;;;;;;;;;5007115;28;20083;-85
2021/10/11 03:47:04;;;;;;;890.80;597.15;;;;;;;;;;5005670;28;20026;-85
2021/10/11 03:49:30;;;;;;;891.65;596.15;;;;;;;;;;5005312;28;20044;-85
2021/10/11 03:51:56;;;;;;;901.05;624.15;;;;;;;;;;5003304;28;20053;-86
2021/10/11 03:54:22;;;;;;;887.83;572.83;;;;;;;;;;5006735;28;20030;-85
2021/10/11 03:56:47;;;;;;;892.38;589.00;;;;;;;;;;5021514;28;20041;-85
2021/10/11 03:59:13;;;;;;;887.00;575.45;;;;;;;;;;5005722;28;20065;-85
2021/10/11 04:01:39;;;;;;;887.08;571.08;;;;;;;;;;5007368;28;20037;-85
2021/10/11 04:04:08;;;;;;;894.17;605.53;;;;;;;;;;5008275;28;20056;-85
2021/10/11 04:06:34;;;;;;;884.22;565.83;;;;;;;;;;5008003;28;20066;-85
2021/10/11 04:09:04;;;;;;;895.15;596.42;;;;;;;;;;5006541;28;20514;-85
2021/10/11 04:11:31;;;;;;;886.92;564.92;;;;;;;;;;5008806;28;20832;-85
2021/10/11 04:13:57;;;;;;;883.85;563.17;;;;;;;;;;5009340;28;20030;-85
2021/10/11 04:16:24;;;;;;;886.67;568.95;;;;;;;;;;5009745;28;20045;-85
2021/10/11 04:18:50;;;;;;;888.35;584.25;;;;;;;;;;5007254;28;20034;-84
2021/10/11 04:21:16;;;;;;;891.50;588.85;;;;;;;;;;5007944;28;20040;-85
2021/10/11 04:23:42;;;;;;;893.47;590.58;;;;;;;;;;5008288;28;20105;-85
2021/10/11 04:26:08;;;;;;;900.47;628.20;;;;;;;;;;5008800;28;20030;-85
2021/10/11 04:28:34;;;;;;;901.45;633.97;;;;;;;;;;5008026;28;20246;-85
2021/10/11 04:31:00;;;;;;;895.42;609.00;;;;;;;;;;5007642;28;20037;-85
2021/10/11 04:33:26;;;;;;;896.25;610.38;;;;;;;;;;5007131;28;20040;-85
2021/10/11 04:35:52;;;;;;;894.45;602.20;;;;;;;;;;5006793;28;20041;-85
2021/10/11 04:38:18;;;;;;;890.03;583.45;;;;;;;;;;5007085;28;20533;-85
2021/10/11 04:40:44;;;;;;;890.30;584.83;;;;;;;;;;5006983;28;21056;-85
2021/10/11 04:43:10;;;;;;;887.03;586.00;;;;;;;;;;5005585;28;20044;-85
2021/10/11 04:45:37;;;;;;;890.78;594.67;;;;;;;;;;5007716;28;20054;-85
2021/10/11 04:48:05;;;;;;;893.42;599.80;;;;;;;;;;5008079;28;20104;-84
2021/10/11 04:50:32;;;;;;;891.15;600.90;;;;;;;;;;5005935;28;20128;-85
2021/10/11 04:52:59;;;;;;;894.13;599.10;;;;;;;;;;5006136;28;20120;-85
2021/10/11 04:55:25;;;;;;;898.80;622.38;;;;;;;;;;5006254;28;20525;-85
2021/10/11 04:57:51;;;;;;;893.25;604.03;;;;;;;;;;5006419;28;20393;-85
2021/10/11 05:00:19;;;;;;;892.17;602.58;;;;;;;;;;5006617;28;20029;-85
2021/10/11 05:02:45;;;;;;;889.95;595.92;;;;;;;;;;5006607;28;20033;-85
2021/10/11 05:05:11;;;;;;;892.17;599.80;;;;;;;;;;5006189;28;20096;-85
2021/10/11 05:07:37;;;;;;;886.42;574.45;;;;;;;;;;5007641;28;20470;-85
2021/10/11 05:10:04;;;;;;;890.53;604.45;;;;;;;;;;5006657;28;20025;-86
2021/10/11 05:12:30;;;;;;;888.25;585.05;;;;;;;;;;5008912;28;20042;-85
2021/10/11 05:14:56;;;;;;;897.17;623.45;;;;;;;;;;5011080;28;20285;-86
2021/10/11 05:17:22;;;;;;;891.80;604.38;;;;;;;;;;5009067;28;20042;-85
2021/10/11 05:19:48;;;;;;;888.72;578.97;;;;;;;;;;5008573;28;20124;-85
2021/10/11 05:22:14;;;;;;;877.75;546.38;;;;;;;;;;5007153;28;20034;-85
2021/10/11 05:24:41;;;;;;;888.20;590.67;;;;;;;;;;5008856;28;20504;-85
2021/10/11 05:27:07;;;;;;;896.55;616.03;;;;;;;;;;5009125;28;20026;-85
2021/10/11 05:29:33;;;;;;;899.03;625.97;;;;;;;;;;5005643;28;20093;-85
2021/10/11 05:32:00;;;;;;;892.28;607.80;;;;;;;;;;5008454;28;20026;-85
2021/10/11 05:34:26;;;;;;;884.38;579.08;;;;;;;;;;5010760;28;20185;-85
2021/10/11 05:36:52;;;;;;;894.22;607.95;;;;;;;;;;5008733;28;20053;-85
2021/10/11 05:39:18;;;;;;;891.80;597.33;;;;;;;;;;5008628;28;20026;-85
2021/10/11 05:41:44;;;;;;;888.88;590.85;;;;;;;;;;5009962;28;20490;-85
2021/10/11 05:44:10;;;;;;;892.00;601.45;;;;;;;;;;5008411;28;20057;-85
2021/10/11 05:46:36;;;;;;;880.92;574.58;;;;;;;;;;5002266;28;20040;-85
2021/10/11 05:49:03;;;;;;;886.75;588.80;;;;;;;;;;5008777;28;20029;-85
2021/10/11 05:51:29;;;;;;;887.10;590.95;;;;;;;;;;5006033;28;20277;-86
2021/10/11 05:53:55;;;;;;;890.05;597.67;;;;;;;;;;5008756;28;20549;-85
2021/10/11 05:56:21;;;;;;;887.95;594.80;;;;;;;;;;5008296;28;20121;-85
2021/10/11 05:58:49;;;;;;;886.47;580.90;;;;;;;;;;5008990;28;20245;-85
2021/10/11 06:01:15;;;;;;;880.92;570.75;;;;;;;;;;5006936;28;20139;-85
2021/10/11 06:03:41;;;;;;;887.90;595.63;;;;;;;;;;5007371;28;20382;-86
2021/10/11 06:06:07;;;;;;;892.15;605.40;;;;;;;;;;5009202;28;20030;-85
2021/10/11 06:08:33;;;;;;;887.47;596.55;;;;;;;;;;5009202;28;20041;-85
2021/10/11 06:10:59;;;;;;;889.22;595.83;;;;;;;;;;5006549;28;20030;-85
2021/10/11 06:13:25;;;;;;;900.13;632.03;;;;;;;;;;5009548;28;20493;-84
2021/10/11 06:15:51;;;;;;;889.95;600.13;;;;;;;;;;5012129;28;20052;-85
2021/10/11 06:18:16;;;;;;;887.65;595.28;;;;;;;;;;5006308;28;20108;-85
2021/10/11 06:20:43;;;;;;;888.92;601.20;;;;;;;;;;5005655;28;20034;-85
2021/10/11 06:23:09;;;;;;;887.67;574.97;;;;;;;;;;4999897;28;20110;-85
2021/10/11 06:25:35;;;;;;;888.70;605.90;;;;;;;;;;5038150;28;20131;-85
2021/10/11 06:28:01;;;;;;;900.97;647.42;;;;;;;;;;5005515;28;20495;-85
2021/10/11 06:30:27;;;;;;;890.78;612.38;;;;;;;;;;5008007;28;20341;-85
2021/10/11 06:32:53;;;;;;;896.97;636.92;;;;;;;;;;5012162;28;20124;-85
2021/10/11 06:35:19;;;;;;;904.35;656.00;;;;;;;;;;5007912;28;20466;-85
2021/10/11 06:37:45;;;;;;;896.90;620.42;;;;;;;;;;5011384;28;20030;-85
2021/10/11 06:40:11;;;;;;;892.20;620.78;;;;;;;;;;5006939;28;20029;-85
2021/10/11 06:42:37;;;;;;;895.03;620.38;;;;;;;;;;5009733;28;20028;-85
2021/10/11 06:45:03;;;;;;;892.28;608.20;;;;;;;;;;5003214;28;20113;-85
2021/10/11 06:47:29;;;;;;;896.47;626.08;;;;;;;;;;5006384;28;20022;-85
2021/10/11 06:49:55;;;;;;;899.25;648.67;;;;;;;;;;5003796;28;20087;-85
2021/10/11 06:52:21;;;;;;;902.30;661.35;;;;;;;;;;5006642;28;20061;-85
2021/10/11 06:54:47;;;;;;;909.75;681.63;;;;;;;;;;5002633;28;20402;-85
2021/10/11 06:57:13;;;;;;;904.03;670.38;;;;;;;;;;5013593;28;20084;-85
2021/10/11 06:59:41;;;;;;;895.70;640.38;;;;;;;;;;5005442;28;20470;-86
2021/10/11 07:02:07;;;;;;;904.28;665.75;;;;;;;;;;5009097;28;20029;-85
2021/10/11 07:04:33;;;;;;;899.30;664.63;;;;;;;;;;5008489;28;20080;-85
2021/10/11 07:06:59;;;;;;;901.55;658.72;;;;;;;;;;5008060;28;20499;-85
2021/10/11 07:09:25;;;;;;;896.83;645.17;;;;;;;;;;5005085;28;20046;-85
2021/10/11 07:11:51;;;;;;;903.63;660.10;;;;;;;;;;5007263;28;20046;-86
2021/10/11 07:14:18;;;;;;;912.67;695.58;;;;;;;;;;5008291;28;20041;-85
2021/10/11 07:16:45;;;;;;;900.85;663.05;;;;;;;;;;5007844;28;20072;-85
2021/10/11 07:19:12;;;;;;;896.08;636.72;;;;;;;;;;5013452;28;20453;-85
2021/10/11 07:21:37;;;;;;;892.65;632.58;;;;;;;;;;5004185;28;20038;-85
2021/10/11 07:24:04;;;;;;;888.78;608.58;;;;;;;;;;5009593;28;20506;-84
2021/10/11 07:26:30;;;;;;;892.40;629.83;;;;;;;;;;5008492;28;20045;-84
2021/10/11 07:28:56;;;;;;;892.70;629.38;;;;;;;;;;5015320;28;20021;-84
2021/10/11 07:31:22;;;;;;;905.10;671.58;;;;;;;;;;5006605;28;20056;-84
2021/10/11 07:33:48;;;;;;;893.75;641.50;;;;;;;;;;5007787;28;20092;-84
2021/10/11 07:36:14;;;;;;;891.28;628.45;;;;;;;;;;5009569;28;20040;-84
2021/10/11 07:38:40;;;;;;;891.78;633.35;;;;;;;;;;5012597;28;20473;-84
2021/10/11 07:41:07;;;;;;;892.08;624.42;;;;;;;;;;5008093;28;20056;-84
2021/10/11 07:43:33;;;;;;;887.75;616.72;;;;;;;;;;5008893;28;20411;-83
2021/10/11 07:46:04;;;;;;;888.33;623.60;;;;;;;;;;5009821;28;20042;-84
2021/10/11 07:48:30;;;;;;;894.65;631.47;;;;;;;;;;5014004;28;20477;-83
2021/10/11 07:50:56;;;;;;;886.10;613.53;;;;;;;;;;5013824;28;20037;-83
2021/10/11 07:53:22;;;;;;;889.92;626.17;;;;;;;;;;5012516;28;20034;-83
2021/10/11 07:55:48;;;;;;;894.58;654.45;;;;;;;;;;5013574;28;20034;-82
2021/10/11 07:58:14;;;;;;;897.13;668.45;;;;;;;;;;5014434;28;20531;-82
2021/10/11 08:00:40;;;;;;;898.35;663.10;;;;;;;;;;5013055;28;20113;-82
2021/10/11 08:03:06;;;;;;;905.85;698.80;;;;;;;;;;5008665;28;20484;-82
2021/10/11 08:05:32;;;;;;;898.70;676.08;;;;;;;;;;5008990;28;20160;-82
2021/10/11 08:07:58;;;;;;;904.47;701.03;;;;;;;;;;5009057;28;20131;-82
2021/10/11 08:10:24;;;;;;;901.25;698.55;;;;;;;;;;5013844;28;20514;-82
2021/10/11 08:12:50;;;;;;;906.22;708.13;;;;;;;;;;5026131;28;20037;-81
2021/10/11 08:15:17;;;;;;;906.15;709.55;;;;;;;;;;5009131;28;20041;-82
2021/10/11 08:17:44;;;;;;;910.70;728.08;;;;;;;;;;5002683;28;20042;-80
2021/10/11 08:20:10;;;;;;;902.25;699.50;;;;;;;;;;5006487;28;20287;-81
2021/10/11 08:22:36;;;;;;;917.40;754.17;;;;;;;;;;5001792;28;20107;-81
2021/10/11 08:25:03;;;;;;;910.83;741.35;;;;;;;;;;5007269;28;20441;-82
2021/10/11 08:27:29;;;;;;;909.35;736.25;;;;;;;;;;5006285;28;20501;-81
2021/10/11 08:29:55;;;;;;;916.60;753.17;;;;;;;;;;5007068;28;20080;-78
2021/10/11 08:32:22;;;;;;;934.78;817.65;;;;;;;;;;5010694;28;20041;-78
2021/10/11 08:34:49;;;;;;;927.83;800.30;;;;;;;;;;5007811;28;20476;-81
2021/10/11 08:37:15;;;;;;;917.55;780.47;;;;;;;;;;5007983;28;20036;-81
2021/10/11 08:39:41;;;;;;;923.72;789.03;;;;;;;;;;5008077;28;20069;-81
2021/10/11 08:42:07;;;;;;;926.30;799.75;;;;;;;;;;5004861;28;20128;-81
2021/10/11 08:44:33;;;;;;;934.45;818.35;;;;;;;;;;5004663;28;20037;-81
2021/10/11 08:46:59;;;;;;;916.70;776.42;;;;;;;;;;5005003;28;20490;-81
2021/10/11 08:49:27;;;;;;;922.83;791.28;;;;;;;;;;5037430;28;20034;-81
2021/10/11 08:51:53;;;;;;;963.15;857.83;;;;;;;;;;5002358;28;20029;-81
2021/10/11 08:54:19;;;;;;;932.80;819.92;;;;;;;;;;5003124;28;20385;-81
2021/10/11 08:56:45;;;;;;;940.53;836.08;;;;;;;;;;5002016;28;20550;-80
2021/10/11 08:59:12;;;;;;;945.28;841.30;;;;;;;;;;5002933;28;20737;-81
2021/10/11 09:01:41;;;;;;;957.47;853.05;;;;;;;;;;5013453;28;20382;-81
2021/10/11 09:04:17;;;;;;;967.50;862.58;;;;;;;;;;5007513;28;20026;-81
2021/10/11 09:07:04;;;;;;;944.25;840.25;;;;;;;;;;5004786;28;20025;-81
2021/10/11 09:09:31;;;;;;;934.25;827.55;;;;;;;;;;5007425;28;20026;-81
2021/10/11 09:11:57;;;;;;;954.65;850.20;;;;;;;;;;5008154;28;20357;-81
2021/10/11 09:14:23;;;;;;;955.40;851.05;;;;;;;;;;5008688;28;20501;-81
2021/10/11 09:17:03;;;;;;;955.33;851.15;;;;;;;;;;5010732;28;20042;-81
2021/10/11 09:19:39;;;;;;;957.28;853.03;;;;;;;;;;5009164;28;20065;-81
2021/10/11 09:22:05;;;;;;;950.03;845.83;;;;;;;;;;5002472;28;20033;-82
2021/10/11 09:24:31;;;;;;;965.15;860.40;;;;;;;;;;5011937;28;20018;-80
2021/10/11 09:27:01;;;;;;;968.38;863.97;;;;;;;;;;5017145;28;20026;-80
2021/10/11 09:29:27;;;;;;;;;;;;;;;;;;5011983;28;20041;-81
2021/10/11 09:31:54;;;;;;;925.13;804.03;;;;;;;;;;5009852;28;19988;-81
2021/10/11 09:34:21;;;;;;;956.53;852.50;;;;;;;;;;5010371;28;20105;-81
2021/10/11 09:37:01;;;;;;;926.83;821.72;;;;;;;;;;5008590;28;20084;-82
2021/10/11 09:39:28;;;;;;;910.08;780.22;;;;;;;;;;5005505;28;20060;-80
2021/10/11 09:41:55;;;;;;;947.75;844.63;;;;;;;;;;5007716;28;20112;-81
2021/10/11 09:44:22;;;;;;;954.17;851.05;;;;;;;;;;5006042;28;20080;-81
2021/10/11 09:46:51;;;;;;;951.05;847.95;;;;;;;;;;5007260;28;20121;-81
2021/10/11 09:49:17;;;;;;;955.33;852.17;;;;;;;;;;5035463;28;20041;-80
2021/10/11 09:51:43;;;;;;;957.03;853.65;;;;;;;;;;5003346;28;20022;-81
2021/10/11 09:54:09;;;;;;;953.38;850.50;;;;;;;;;;5008281;28;20088;-81
2021/10/11 09:56:37;;;;;;;968.22;864.70;;;;;;;;;;5009614;28;20037;-82
2021/10/11 09:59:03;;;;;;;959.05;856.25;;;;;;;;;;5005845;28;20030;-81
2021/10/11 10:01:31;;;;;;;943.35;840.85;;;;;;;;;;5000160;28;20029;-80
2021/10/11 10:03:57;;;;;;;933.15;831.22;;;;;;;;;;5001166;28;20084;-80
2021/10/11 10:06:29;;;;;;;943.35;834.38;;;;;;;;;;5024497;28;20060;-81
2021/10/11 10:08:56;;;;;;;965.80;862.70;;;;;;;;;;5007942;28;20482;-80
2021/10/11 10:11:28;;;;;;;913.05;809.25;;;;;;;;;;5018356;28;20034;-80
2021/10/11 10:13:54;;;;;;;957.50;854.55;;;;;;;;;;5000612;28;20026;-80
2021/10/11 10:16:20;;;;;;;917.55;816.40;;;;;;;;;;4999089;28;20034;-80
2021/10/11 10:18:46;;;;;;;909.65;801.78;;;;;;;;;;5006324;28;20030;-80
2021/10/11 10:21:13;;;;;;;911.08;806.80;;;;;;;;;;5004357;28;20566;-79
2021/10/11 10:23:40;;;;;;;932.35;830.90;;;;;;;;;;5004399;28;20033;-78
2021/10/11 10:26:08;;;;;;;906.20;800.80;;;;;;;;;;5004250;28;20026;-78
2021/10/11 10:28:53;;;;;;;933.47;831.90;;;;;;;;;;5002545;28;20437;-80
2021/10/11 10:31:27;;;;;;;912.05;807.47;;;;;;;;;;4999844;28;20064;-78
2021/10/11 10:33:53;;;;;;;913.15;803.33;;;;;;;;;;5002318;28;20048;-79
2021/10/11 10:36:20;;;;;;;914.25;805.15;;;;;;;;;;5007249;28;20034;-79
2021/10/11 10:38:56;;;;;;;932.20;829.85;;;;;;;;;;5009446;28;20026;-79
2021/10/11 10:41:22;;;;;;;910.40;782.65;;;;;;;;;;5020917;28;20022;-79
2021/10/11 10:43:48;;;;;;;934.47;831.75;;;;;;;;;;5006742;28;20521;-80
2021/10/11 10:46:14;;;;;;;906.28;769.72;;;;;;;;;;5008678;28;20034;-82
2021/10/11 10:48:50;;;;;;;915.75;805.67;;;;;;;;;;5000714;28;20526;-79
2021/10/11 10:51:17;;;;;;;907.85;769.40;;;;;;;;;;4999086;28;20285;-77
2021/10/11 10:53:50;;;;;;;916.85;802.75;;;;;;;;;;4994894;28;20080;-78
2021/10/11 10:56:16;;;;;;;902.08;752.60;;;;;;;;;;5000803;28;20018;-76
2021/10/11 10:58:42;;;;;;;904.90;755.60;;;;;;;;;;5004235;28;20038;-78
2021/10/11 11:01:08;;;;;;;913.95;793.88;;;;;;;;;;5000268;28;20033;-78
2021/10/11 11:03:34;;;;;;;929.67;814.50;;;;;;;;;;5002062;28;20022;-79
2021/10/11 11:06:04;;;;;;;909.63;787.33;;;;;;;;;;5000802;28;20187;-81
2021/10/11 11:08:30;;;;;;;912.63;784.65;;;;;;;;;;5028018;28;20141;-78
2021/10/11 11:10:59;;;;;;;921.42;819.05;;;;;;;;;;4998973;28;20601;-78
2021/10/11 11:13:25;;;;;;;905.38;784.25;;;;;;;;;;5001668;28;21411;-78
2021/10/11 11:15:53;;;;;;;922.63;821.17;;;;;;;;;;5022233;28;20030;-79
2021/10/11 11:18:20;;;;;;;965.60;862.72;;;;;;;;;;5003176;28;20036;-78
2021/10/11 11:20:47;;;;;;;907.28;797.47;;;;;;;;;;5019049;28;20153;-79
2021/10/11 11:23:15;;;;;;;906.25;802.47;;;;;;;;;;5004526;28;20030;-78
2021/10/11 11:25:44;;;;;;;919.65;818.80;;;;;;;;;;5006594;28;20025;-81
2021/10/11 11:28:17;;;;;;;920.58;819.67;;;;;;;;;;5008790;28;20092;-78
2021/10/11 11:30:45;;;;;;;902.33;791.97;;;;;;;;;;5014125;28;20029;-77
2021/10/11 11:33:14;;;;;;;915.42;814.33;;;;;;;;;;5003747;28;20038;-77
2021/10/11 11:35:45;;;;;;;906.13;799.72;;;;;;;;;;5005594;28;20040;-76
2021/10/11 11:38:12;;;;;;;939.70;837.30;;;;;;;;;;5017046;28;20052;-77
2021/10/11 11:40:39;;;;;;;904.42;777.83;;;;;;;;;;5005010;28;20032;-78
2021/10/11 11:43:06;;;;;;;963.88;860.83;;;;;;;;;;5001845;28;20573;-79
2021/10/11 11:45:35;;;;;;;948.80;846.20;;;;;;;;;;5012617;28;20123;-76
2021/10/11 11:48:05;;;;;;;928.10;825.25;;;;;;;;;;5002344;28;20070;-77
2021/10/11 11:50:32;;;;;;;938.22;835.72;;;;;;;;;;4999662;28;20026;-77
2021/10/11 11:52:59;;;;;;;965.65;861.88;;;;;;;;;;5006100;28;20207;-78
2021/10/11 11:55:25;;;;;;;938.90;836.35;;;;;;;;;;5006934;28;20381;-78
2021/10/11 11:57:51;;;;;;;920.30;817.67;;;;;;;;;;5006135;28;20030;-77
2021/10/11 12:00:17;;;;;;;924.70;821.70;;;;;;;;;;4999889;28;20026;-77
2021/10/11 12:02:45;;;;;;;915.75;805.05;;;;;;;;;;5018161;28;20029;-78
2021/10/11 12:05:12;;;;;;;919.13;810.83;;;;;;;;;;5002953;28;20034;-77
2021/10/11 12:07:41;;;;;;;912.42;789.85;;;;;;;;;;5000077;28;20038;-76
2021/10/11 12:10:08;;;;;;;922.13;816.47;;;;;;;;;;5016735;28;20177;-77
2021/10/11 12:12:34;;;;;;;908.40;777.20;;;;;;;;;;5002417;28;20045;-77
2021/10/11 12:15:00;;;;;;;918.55;813.47;;;;;;;;;;5007974;28;20032;-78
2021/10/11 12:17:32;;;;;;;942.72;840.08;;;;;;;;;;5004779;28;20281;-76
2021/10/11 12:19:59;;;;;;;905.13;789.65;;;;;;;;;;5010417;28;20030;-77
2021/10/11 12:22:31;;;;;;;906.97;798.55;;;;;;;;;;5011629;28;20490;-78
2021/10/11 12:25:09;;;;;;;963.63;861.10;;;;;;;;;;5008563;28;20018;-77
2021/10/11 12:27:37;;;;;;;958.15;856.17;;;;;;;;;;5007281;28;20525;-76
2021/10/11 12:30:10;;;;;;;970.45;868.00;;;;;;;;;;5008993;28;20048;-75
2021/10/11 12:32:37;;;;;;;994.17;890.92;;;;;;;;;;5007630;28;20061;-76
2021/10/11 12:35:03;;;;;;;991.50;888.53;;;;;;;;;;5008978;28;20036;-75
2021/10/11 12:37:42;;;;;;;1027.50;923.17;;;;;;;;;;5007186;28;20022;-77
2021/10/11 12:40:10;;;;;;;998.47;895.28;;;;;;;;;;5010195;28;20398;-76
2021/10/11 12:42:43;;;;;;;1032.43;927.72;;;;;;;;;;5007621;28;20021;-75
2021/10/11 12:45:12;;;;;;;1003.22;899.88;;;;;;;;;;5007695;28;20356;-79
2021/10/11 12:47:41;;;;;;;930.10;829.10;;;;;;;;;;5014244;28;20394;-76
2021/10/11 12:50:12;;;;;;;929.50;828.83;;;;;;;;;;5008652;28;20307;-80
2021/10/11 12:52:41;;;;;;;993.97;889.92;;;;;;;;;;5003732;28;20022;-81
2021/10/11 12:55:18;;;;;;;922.28;821.28;;;;;;;;;;5006328;28;20061;-79
2021/10/11 12:57:45;;;;;;;936.33;834.70;;;;;;;;;;5008176;28;20295;-78
2021/10/11 13:00:12;;;;;;;938.75;836.78;;;;;;;;;;5008127;28;20112;-78
2021/10/11 13:02:39;;;;;;;947.90;844.88;;;;;;;;;;5006725;28;20036;-76
2021/10/11 13:05:06;;;;;;;986.90;882.15;;;;;;;;;;5008241;28;20531;-77
2021/10/11 13:07:33;;;;;;;951.22;848.78;;;;;;;;;;5005733;28;20037;-76
2021/10/11 13:10:00;;;;;;;948.63;846.47;;;;;;;;;;5007211;28;20403;-77
2021/10/11 13:12:26;;;;;;;942.15;840.13;;;;;;;;;;5006421;28;20044;-77
2021/10/11 13:14:53;;;;;;;949.40;847.65;;;;;;;;;;5008686;28;20684;-76
2021/10/11 13:17:19;;;;;;;1020.97;916.20;;;;;;;;;;5006627;28;20081;-77
2021/10/11 13:19:45;;;;;;;1005.90;901.63;;;;;;;;;;5006593;28;20033;-78
2021/10/11 13:22:11;;;;;;;979.50;876.28;;;;;;;;;;5006104;28;20037;-78
2021/10/11 13:24:37;;;;;;;986.97;883.15;;;;;;;;;;5006149;28;20034;-77
2021/10/11 13:27:03;;;;;;;972.40;869.42;;;;;;;;;;5007022;28;20184;-76
2021/10/11 13:32:42;;;;;;;987.88;883.97;;;;;;;;;;5008592;28;20044;-76
2021/10/11 13:36:04;;;;;;;965.97;862.80;;;;;;;;;;5021832;28;20064;-76
2021/10/11 14:26:34;;;;;;;1002.30;897.80;;;;;;;;;;5006777;28;20032;-76
2021/10/11 14:29:51;;;;;;;964.72;862.03;;;;;;;;;;5005573;28;20557;-78
2021/10/11 14:32:45;;;;;;;995.30;890.83;;;;;;;;;;5001911;28;20450;-76
2021/10/11 15:59:59;;;;;;;980.90;874.83;;;;;;;;;;5011793;28;20029;-80
2021/10/11 16:04:54;;;;;;;964.30;859.42;;;;;;;;;;5008579;28;20026;-79
2021/10/11 16:07:20;;;;;;;980.78;875.25;;;;;;;;;;5009448;28;20045;-80
2021/10/11 16:09:46;;;;;;;988.15;882.40;;;;;;;;;;5007891;28;20088;-80